createdAt,value
2023-03-19T00:00:41.753Z,98103.38
2023-03-19T00:03:48.078Z,98095.69
2023-03-19T00:06:55.045Z,98098.63
2023-03-19T00:10:10.044Z,98093.19
2023-03-19T00:13:17.521Z,98093.44
2023-03-19T00:16:23.817Z,98098.97
2023-03-19T00:19:31.036Z,98087.28
2023-03-19T00:22:37.390Z,98092.13
2023-03-19T00:25:46.789Z,98091.59
2023-03-19T00:28:52.612Z,98091.97
2023-03-19T00:31:59.421Z,98092.25
2023-03-19T00:35:06.583Z,98076.72
2023-03-19T00:38:13.346Z,98080.66
2023-03-19T00:41:23.014Z,98079.28
2023-03-19T00:44:29.952Z,98063.47
2023-03-19T00:47:36.328Z,98081.50
2023-03-19T00:50:43.058Z,98080.97
2023-03-19T00:53:49.240Z,98081.50
2023-03-19T00:56:58.615Z,98085.06
2023-03-19T01:00:04.606Z,98077.44
2023-03-19T01:03:11.422Z,98082.72
2023-03-19T01:06:17.599Z,98082.44
2023-03-19T01:09:24.648Z,98079.78
2023-03-19T01:12:33.255Z,98082.31
2023-03-19T01:15:40.662Z,98076.03
2023-03-19T01:18:46.774Z,98083.69
2023-03-19T01:21:53.838Z,98086.03
2023-03-19T01:25:01.769Z,98080.75
2023-03-19T01:28:11.816Z,98073.34
2023-03-19T01:31:19.713Z,98075.59
2023-03-19T01:34:49.498Z,98077.13
2023-03-19T01:37:56.429Z,98071.84
2023-03-19T01:41:04.733Z,98067.84
2023-03-19T01:44:35.141Z,98069.50
2023-03-19T01:48:00.578Z,98071.97
2023-03-19T01:51:26.945Z,98076.72
2023-03-19T01:54:53.849Z,98074.09
2023-03-19T01:58:19.261Z,98072.03
2023-03-19T02:01:59.451Z,98072.47
2023-03-19T02:05:13.869Z,98067.19
2023-03-19T02:08:27.373Z,98070.00
2023-03-19T02:11:35.918Z,98067.38
2023-03-19T02:14:42.828Z,98067.97
2023-03-19T02:17:52.091Z,98066.16
2023-03-19T02:21:09.742Z,98060.19
2023-03-19T02:24:24.206Z,98069.91
2023-03-19T02:27:42.892Z,98072.97
2023-03-19T02:30:49.760Z,98077.13
2023-03-19T02:34:06.513Z,98075.59
2023-03-19T02:37:22.628Z,98079.88
2023-03-19T02:40:38.818Z,98075.88
2023-03-19T02:43:54.461Z,98080.28
2023-03-19T02:47:01.595Z,98080.28
2023-03-19T02:50:09.896Z,98091.03
2023-03-19T02:53:16.167Z,98092.63
2023-03-19T02:56:22.876Z,98087.22
2023-03-19T02:59:31.752Z,98090.84
2023-03-19T03:02:38.812Z,98090.59
2023-03-19T03:05:45.171Z,98095.59
2023-03-19T03:08:58.596Z,98087.00
2023-03-19T03:12:04.775Z,98099.06
2023-03-19T03:15:17.648Z,98102.53
2023-03-19T03:18:26.019Z,98104.19
2023-03-19T03:21:35.381Z,98097.81
2023-03-19T03:24:43.777Z,98102.63
2023-03-19T03:27:50.510Z,98101.50
2023-03-19T03:31:05.811Z,98094.28
2023-03-19T03:34:13.238Z,98099.53
2023-03-19T03:37:19.949Z,98103.56
2023-03-19T03:40:27.689Z,98102.41
2023-03-19T03:43:34.095Z,98098.78
2023-03-19T03:46:46.399Z,98105.03
2023-03-19T03:49:52.489Z,98100.44
2023-03-19T03:52:59.318Z,98100.03
2023-03-19T03:56:05.627Z,98102.25
2023-03-19T03:59:12.645Z,98100.91
2023-03-19T04:02:21.183Z,98094.28
2023-03-19T04:05:31.675Z,98099.97
2023-03-19T04:08:43.705Z,98100.28
2023-03-19T04:11:52.057Z,98102.91
2023-03-19T04:14:58.091Z,98106.41
2023-03-19T04:18:07.805Z,98109.63
2023-03-19T04:21:13.825Z,98104.50
2023-03-19T04:24:27.089Z,98106.56
2023-03-19T04:27:36.037Z,98099.94
2023-03-19T04:30:43.677Z,98100.63
2023-03-19T04:33:53.752Z,98092.88
2023-03-19T04:37:02.455Z,98098.94
2023-03-19T04:40:12.656Z,98085.59
2023-03-19T04:43:21.355Z,98093.63
2023-03-19T04:46:28.210Z,98100.63
2023-03-19T04:49:44.538Z,98095.81
2023-03-19T04:52:57.117Z,98098.91
2023-03-19T04:56:18.190Z,98094.63
2023-03-19T04:59:25.351Z,98096.91
2023-03-19T05:02:32.558Z,98095.25
2023-03-19T05:05:41.542Z,98093.38
2023-03-19T05:08:54.012Z,98084.47
2023-03-19T05:12:02.129Z,98090.38
2023-03-19T05:15:14.718Z,98092.53
2023-03-19T05:18:29.981Z,98089.72
2023-03-19T05:21:41.103Z,98097.19
2023-03-19T05:24:47.242Z,98100.28
2023-03-19T05:27:54.513Z,98099.50
2023-03-19T05:31:10.154Z,98099.38
2023-03-19T05:34:24.570Z,98109.06
2023-03-19T05:37:33.910Z,98100.22
2023-03-19T05:40:42.217Z,98099.03
2023-03-19T05:44:01.857Z,98094.09
2023-03-19T05:47:28.798Z,98102.22
2023-03-19T05:50:36.763Z,98111.50
2023-03-19T05:54:13.003Z,98110.00
2023-03-19T05:57:32.281Z,98113.53
2023-03-19T06:00:59.982Z,98113.63
2023-03-19T06:04:09.529Z,98111.38
2023-03-19T06:07:16.709Z,98112.34
2023-03-19T06:10:32.385Z,98119.75
2023-03-19T06:13:46.213Z,98111.53
2023-03-19T06:16:57.965Z,98117.91
2023-03-19T06:20:07.587Z,98113.97
2023-03-19T06:23:16.210Z,98119.94
2023-03-19T06:26:26.000Z,98113.88
2023-03-19T06:29:36.361Z,98113.22
2023-03-19T06:32:56.011Z,98123.53
2023-03-19T06:36:03.444Z,98123.28
2023-03-19T06:39:13.031Z,98127.38
2023-03-19T06:42:21.761Z,98133.94
2023-03-19T06:45:28.889Z,98128.91
2023-03-19T06:48:34.776Z,98134.38
2023-03-19T06:51:41.505Z,98129.22
2023-03-19T06:54:47.454Z,98128.53
2023-03-19T06:57:56.783Z,98128.75
2023-03-19T07:01:09.229Z,98118.47
2023-03-19T07:04:16.141Z,98122.50
2023-03-19T07:07:23.184Z,98119.50
2023-03-19T07:10:30.104Z,98113.53
2023-03-19T07:13:49.706Z,98126.53
2023-03-19T07:16:56.479Z,98123.03
2023-03-19T07:20:02.367Z,98129.88
2023-03-19T07:23:15.179Z,98118.97
2023-03-19T07:26:21.424Z,98122.31
2023-03-19T07:29:30.827Z,98120.00
2023-03-19T07:32:44.092Z,98128.28
2023-03-19T07:35:51.077Z,98128.25
2023-03-19T07:38:57.631Z,98131.84
2023-03-19T07:42:04.611Z,98133.88
2023-03-19T07:45:15.301Z,98127.31
2023-03-19T07:48:23.193Z,98133.56
2023-03-19T07:51:29.673Z,98137.69
2023-03-19T07:54:36.974Z,98134.34
2023-03-19T07:57:42.952Z,98137.75
2023-03-19T08:00:57.081Z,98134.22
2023-03-19T08:04:05.018Z,98127.38
2023-03-19T08:07:14.298Z,98120.75
2023-03-19T08:10:21.038Z,98118.34
2023-03-19T08:13:27.844Z,98122.19
2023-03-19T08:16:36.621Z,98115.72
2023-03-19T08:19:43.315Z,98118.03
2023-03-19T08:22:53.989Z,98107.81
2023-03-19T08:26:00.850Z,98128.47
2023-03-19T08:29:14.134Z,98124.44
2023-03-19T08:32:23.628Z,98120.59
2023-03-19T08:35:30.009Z,98127.69
2023-03-19T08:38:36.848Z,98126.81
2023-03-19T08:41:49.104Z,98120.38
2023-03-19T08:44:56.641Z,98117.59
2023-03-19T08:48:05.270Z,98118.56
2023-03-19T08:51:13.179Z,98118.84
2023-03-19T08:54:24.442Z,98119.28
2023-03-19T08:57:31.346Z,98110.50
2023-03-19T09:00:37.369Z,98117.75
2023-03-19T09:03:50.262Z,98110.13
2023-03-19T09:06:56.562Z,98122.13
2023-03-19T09:10:03.305Z,98128.81
2023-03-19T09:13:09.479Z,98114.63
2023-03-19T09:16:19.284Z,98110.81
2023-03-19T09:19:29.194Z,98121.53
2023-03-19T09:22:36.482Z,98130.38
2023-03-19T09:25:46.370Z,98124.97
2023-03-19T09:28:56.455Z,98126.91
2023-03-19T09:32:03.307Z,98119.31
2023-03-19T09:35:14.091Z,98122.56
2023-03-19T09:38:20.054Z,98120.69
2023-03-19T09:41:43.504Z,98108.50
2023-03-19T09:44:50.493Z,98099.94
2023-03-19T09:48:15.229Z,98105.44
2023-03-19T09:51:36.392Z,98106.53
2023-03-19T09:54:52.796Z,98109.50
2023-03-19T09:58:09.215Z,98106.84
2023-03-19T10:01:43.995Z,98102.44
2023-03-19T10:05:09.450Z,98104.00
2023-03-19T10:08:49.294Z,98103.75
2023-03-19T10:12:20.484Z,98091.84
2023-03-19T10:15:33.602Z,98090.91
2023-03-19T10:18:42.894Z,98089.47
2023-03-19T10:22:02.924Z,98094.69
2023-03-19T10:25:22.984Z,98099.47
2023-03-19T10:28:33.038Z,98089.59
2023-03-19T10:31:52.078Z,98075.19
2023-03-19T10:35:08.442Z,98070.16
2023-03-19T10:38:25.953Z,98077.22
2023-03-19T10:41:56.561Z,98076.19
2023-03-19T10:45:13.190Z,98062.06
2023-03-19T10:48:22.593Z,98069.03
2023-03-19T10:51:30.865Z,98057.84
2023-03-19T10:54:48.563Z,98055.53
2023-03-19T10:58:08.531Z,98051.72
2023-03-19T11:01:16.833Z,98060.28
2023-03-19T11:04:26.560Z,98051.06
2023-03-19T11:07:40.316Z,98043.03
2023-03-19T11:10:53.097Z,98045.16
2023-03-19T11:14:10.417Z,98036.84
2023-03-19T11:17:26.528Z,98028.44
2023-03-19T11:20:42.060Z,98031.84
2023-03-19T11:23:48.210Z,98018.47
2023-03-19T11:26:59.789Z,98021.13
2023-03-19T11:30:23.342Z,98006.91
2023-03-19T11:34:00.269Z,98005.75
2023-03-19T11:37:29.319Z,97995.94
2023-03-19T11:40:47.759Z,97990.72
2023-03-19T11:44:05.257Z,98000.75
2023-03-19T11:47:38.000Z,97993.34
2023-03-19T11:50:58.020Z,97989.66
2023-03-19T11:54:19.293Z,97991.63
2023-03-19T11:57:49.741Z,97977.41
2023-03-19T12:01:03.368Z,97971.75
2023-03-19T12:04:42.170Z,97975.50
2023-03-19T12:08:07.562Z,97963.59
2023-03-19T12:11:35.540Z,97968.94
2023-03-19T12:15:05.271Z,97971.19
2023-03-19T12:18:31.455Z,97961.84
2023-03-19T12:22:07.010Z,97957.03
2023-03-19T12:25:38.909Z,97954.56
2023-03-19T12:28:59.633Z,97955.81
2023-03-19T12:32:34.079Z,97953.09
2023-03-19T12:35:43.484Z,97945.63
2023-03-19T12:39:01.299Z,97945.56
2023-03-19T12:42:19.440Z,97934.22
2023-03-19T12:45:35.083Z,97939.88
2023-03-19T12:48:53.603Z,97944.81
2023-03-19T12:52:09.750Z,97941.16
2023-03-19T12:55:26.157Z,97942.22
2023-03-19T12:58:58.574Z,97939.50
2023-03-19T13:02:23.923Z,97924.56
2023-03-19T13:05:43.729Z,97936.66
2023-03-19T13:09:01.292Z,97936.13
2023-03-19T13:12:21.572Z,97927.44
2023-03-19T13:15:40.568Z,97935.16
2023-03-19T13:19:01.510Z,97933.84
2023-03-19T13:22:18.427Z,97946.50
2023-03-19T13:25:34.336Z,97958.03
2023-03-19T13:29:04.574Z,97945.47
2023-03-19T13:32:26.976Z,97931.88
2023-03-19T13:35:43.896Z,97917.13
2023-03-19T13:38:54.506Z,97923.44
2023-03-19T13:42:24.569Z,97920.09
2023-03-19T13:45:40.631Z,97923.59
2023-03-19T13:48:56.775Z,97909.34
2023-03-19T13:52:07.311Z,97912.47
2023-03-19T13:55:51.335Z,97907.47
2023-03-19T13:59:28.225Z,97906.81
2023-03-19T14:02:56.844Z,97898.50
2023-03-19T14:06:04.048Z,97898.28
2023-03-19T14:09:49.634Z,97893.13
2023-03-19T14:13:11.917Z,97899.91
2023-03-19T14:16:27.462Z,97898.19
2023-03-19T14:19:45.504Z,97896.56
2023-03-19T14:23:17.972Z,97887.97
2023-03-19T14:26:29.685Z,97886.59
2023-03-19T14:29:39.085Z,97875.06
2023-03-19T14:32:48.863Z,97879.31
2023-03-19T14:36:06.051Z,97880.19
2023-03-19T14:39:24.776Z,97889.53
2023-03-19T14:42:43.494Z,97892.06
2023-03-19T14:46:04.280Z,97888.13
2023-03-19T14:49:57.945Z,97888.75
2023-03-19T14:53:18.774Z,97892.50
2023-03-19T14:56:34.822Z,97886.25
2023-03-19T14:59:42.223Z,97874.22
2023-03-19T15:02:53.551Z,97874.19
2023-03-19T15:06:04.676Z,97882.06
2023-03-19T15:09:26.981Z,97885.19
2023-03-19T15:13:01.159Z,97883.28
2023-03-19T15:16:40.438Z,97884.38
2023-03-19T15:19:48.887Z,97885.81
2023-03-19T15:23:05.770Z,97876.31
2023-03-19T15:26:31.954Z,97897.31
2023-03-19T15:29:38.757Z,97887.41
2023-03-19T15:33:07.860Z,97884.59
2023-03-19T15:36:18.545Z,97883.53
2023-03-19T15:39:31.941Z,97888.72
2023-03-19T15:42:43.464Z,97893.84
2023-03-19T15:45:57.655Z,97896.75
2023-03-19T15:49:17.448Z,97896.50
2023-03-19T15:52:24.774Z,97892.66
2023-03-19T15:55:32.819Z,97885.66
2023-03-19T15:58:53.195Z,97887.72
2023-03-19T16:02:04.448Z,97888.16
2023-03-19T16:05:26.585Z,97883.69
2023-03-19T16:08:34.670Z,97896.66
2023-03-19T16:11:49.544Z,97896.19
2023-03-19T16:14:58.966Z,97899.25
2023-03-19T16:18:27.935Z,97904.22
2023-03-19T16:21:42.642Z,97901.94
2023-03-19T16:24:52.856Z,97899.69
2023-03-19T16:28:01.886Z,97895.34
2023-03-19T16:31:25.216Z,97901.81
2023-03-19T16:34:46.847Z,97912.97
2023-03-19T16:38:14.147Z,97915.66
2023-03-19T16:41:27.884Z,97913.78
2023-03-19T16:44:33.919Z,97912.16
2023-03-19T16:47:43.483Z,97905.56
2023-03-19T16:50:50.405Z,97911.94
2023-03-19T16:53:57.658Z,97916.66
2023-03-19T16:57:04.307Z,97915.78
2023-03-19T17:00:16.707Z,97914.56
2023-03-19T17:03:26.350Z,97928.75
2023-03-19T17:06:34.675Z,97930.19
2023-03-19T17:09:41.421Z,97934.25
2023-03-19T17:12:53.219Z,97935.88
2023-03-19T17:16:04.010Z,97933.78
2023-03-19T17:19:23.914Z,97937.03
2023-03-19T17:22:30.116Z,97939.63
2023-03-19T17:25:37.095Z,97950.03
2023-03-19T17:28:43.013Z,97949.75
2023-03-19T17:31:51.199Z,97948.44
2023-03-19T17:34:59.963Z,97952.63
2023-03-19T17:38:07.190Z,97955.66
2023-03-19T17:41:20.047Z,97955.97
2023-03-19T17:44:28.155Z,97956.94
2023-03-19T17:47:35.582Z,97967.41
2023-03-19T17:50:45.357Z,97953.13
2023-03-19T17:53:56.260Z,97961.69
2023-03-19T17:57:05.062Z,97958.97
2023-03-19T18:00:13.623Z,97965.22
2023-03-19T18:03:24.778Z,97953.44
2023-03-19T18:06:39.989Z,97953.13
2023-03-19T18:09:47.187Z,97953.59
2023-03-19T18:12:53.756Z,97964.06
2023-03-19T18:16:00.815Z,97973.19
2023-03-19T18:19:21.784Z,97975.47
2023-03-19T18:22:31.202Z,97967.22
2023-03-19T18:25:37.570Z,97975.56
2023-03-19T18:28:45.586Z,97980.63
2023-03-19T18:31:54.112Z,97977.59
2023-03-19T18:35:02.005Z,97973.81
2023-03-19T18:38:19.475Z,97973.16
2023-03-19T18:41:29.615Z,97979.94
2023-03-19T18:44:44.310Z,97980.59
2023-03-19T18:47:55.249Z,97985.59
2023-03-19T18:51:01.297Z,97982.53
2023-03-19T18:54:12.827Z,97988.53
2023-03-19T18:57:20.649Z,97991.53
2023-03-19T19:00:33.011Z,97990.53
2023-03-19T19:03:40.708Z,97989.13
2023-03-19T19:06:48.362Z,97992.44
2023-03-19T19:09:56.962Z,97992.44
2023-03-19T19:13:06.403Z,97978.19
2023-03-19T19:16:24.002Z,97992.00
2023-03-19T19:19:31.097Z,97992.16
2023-03-19T19:22:39.848Z,97990.69
2023-03-19T19:25:55.358Z,97993.38
2023-03-19T19:29:04.900Z,97989.06
2023-03-19T19:32:25.011Z,97992.09
2023-03-19T19:35:32.469Z,97987.75
2023-03-19T19:38:41.482Z,97985.94
2023-03-19T19:41:55.501Z,97991.84
2023-03-19T19:45:03.726Z,97986.22
2023-03-19T19:48:18.821Z,97988.50
2023-03-19T19:51:34.520Z,97993.91
2023-03-19T19:54:46.730Z,97997.31
2023-03-19T19:57:59.443Z,97991.88
2023-03-19T20:01:16.597Z,97989.97
2023-03-19T20:04:26.493Z,97994.34
2023-03-19T20:07:33.879Z,97999.22
2023-03-19T20:10:46.100Z,98002.91
2023-03-19T20:13:57.587Z,98001.25
2023-03-19T20:17:05.820Z,98001.06
2023-03-19T20:20:20.180Z,97998.03
2023-03-19T20:23:28.042Z,97991.63
2023-03-19T20:26:35.222Z,98000.50
2023-03-19T20:29:53.968Z,98009.03
2023-03-19T20:33:03.927Z,98010.94
2023-03-19T20:36:16.669Z,98002.22
2023-03-19T20:39:23.252Z,98010.66
2023-03-19T20:42:36.701Z,98012.66
2023-03-19T20:45:46.282Z,98004.09
2023-03-19T20:48:54.306Z,98006.31
2023-03-19T20:52:04.866Z,98010.13
2023-03-19T20:55:21.715Z,98008.97
2023-03-19T20:58:33.877Z,98001.81
2023-03-19T21:01:47.781Z,97999.88
2023-03-19T21:04:54.496Z,98001.50
2023-03-19T21:08:01.923Z,97997.63
2023-03-19T21:11:12.729Z,98002.00
2023-03-19T21:14:20.560Z,98008.63
2023-03-19T21:17:30.379Z,98003.34
2023-03-19T21:20:42.764Z,98005.59
2023-03-19T21:23:59.893Z,98006.94
2023-03-19T21:27:06.899Z,98000.34
2023-03-19T21:30:21.043Z,98001.75
2023-03-19T21:33:45.473Z,98006.09
2023-03-19T21:36:51.358Z,98007.78
2023-03-19T21:39:58.227Z,98009.09
2023-03-19T21:43:07.268Z,98002.00
2023-03-19T21:46:24.491Z,98003.03
2023-03-19T21:49:34.223Z,98004.19
2023-03-19T21:52:57.580Z,98002.03
2023-03-19T21:56:04.601Z,97991.31
2023-03-19T21:59:18.353Z,97997.47
2023-03-19T22:02:44.742Z,97994.84
2023-03-19T22:05:55.904Z,97997.66
2023-03-19T22:09:02.101Z,97997.66
2023-03-19T22:12:13.673Z,97993.03
2023-03-19T22:15:28.651Z,97987.41
2023-03-19T22:18:35.324Z,97990.38
2023-03-19T22:21:43.878Z,97990.84
2023-03-19T22:24:50.779Z,97982.75
2023-03-19T22:27:56.860Z,97987.88
2023-03-19T22:31:06.471Z,97989.81
2023-03-19T22:34:18.776Z,97986.06
2023-03-19T22:37:33.042Z,97979.28
2023-03-19T22:40:41.333Z,97973.97
2023-03-19T22:43:49.636Z,97970.00
2023-03-19T22:46:59.374Z,97963.00
2023-03-19T22:50:06.343Z,97968.16
2023-03-19T22:53:27.096Z,97962.72
2023-03-19T22:56:33.757Z,97962.72
2023-03-19T22:59:39.755Z,97964.88
2023-03-19T23:02:50.995Z,97966.66
2023-03-19T23:06:02.594Z,97965.69
2023-03-19T23:09:23.026Z,97964.38
2023-03-19T23:12:29.046Z,97966.03
2023-03-19T23:15:35.998Z,97969.72
2023-03-19T23:18:41.935Z,97970.56
2023-03-19T23:21:49.034Z,97973.06
2023-03-19T23:25:04.637Z,97978.16
2023-03-19T23:28:22.758Z,97972.53
2023-03-19T23:31:29.527Z,97968.09
2023-03-19T23:34:49.705Z,97970.56
2023-03-19T23:38:02.110Z,97967.59
2023-03-19T23:41:21.402Z,97981.91
2023-03-19T23:44:30.386Z,97966.31
2023-03-19T23:47:38.839Z,97961.81
2023-03-19T23:50:45.005Z,97955.50
2023-03-19T23:53:52.750Z,97954.69
2023-03-19T23:57:12.796Z,97957.50
